createdAt,value
2019-04-22T00:00:06.708Z,3.17
2019-04-22T00:03:11.345Z,2.83
2019-04-22T00:06:38.213Z,3.17
2019-04-22T00:09:44.464Z,3.13
2019-04-22T00:12:45.418Z,2.50
2019-04-22T00:15:36.758Z,2.70
2019-04-22T00:19:06.561Z,2.70
2019-04-22T00:21:50.218Z,2.73
2019-04-22T00:24:50.745Z,3.17
2019-04-22T00:27:57.543Z,2.33
2019-04-22T00:31:00.727Z,2.67
2019-04-22T00:33:59.209Z,2.87
2019-04-22T00:37:02.853Z,2.80
2019-04-22T00:40:09.373Z,2.50
2019-04-22T00:43:13.551Z,3.03
2019-04-22T00:46:11.309Z,2.43
2019-04-22T00:52:18.668Z,2.60
2019-04-22T00:55:18.134Z,2.50
2019-04-22T00:58:29.385Z,2.83
2019-04-22T01:01:26.618Z,2.53
2019-04-22T01:04:34.774Z,2.90
2019-04-22T01:07:30.826Z,2.40
2019-04-22T01:10:31.898Z,2.70
2019-04-22T01:13:30.471Z,2.40
2019-04-22T01:16:35.938Z,2.93
2019-04-22T01:19:45.161Z,2.30
2019-04-22T01:22:39.365Z,2.80
2019-04-22T01:25:42.157Z,2.67
2019-04-22T01:28:34.198Z,2.50
2019-04-22T01:31:30.605Z,2.40
2019-04-22T01:34:44.933Z,2.60
2019-04-22T01:37:48.521Z,2.80
2019-04-22T01:41:02.766Z,3.30
2019-04-22T01:44:05.776Z,3.27
2019-04-22T01:47:03.456Z,3.40
2019-04-22T01:50:10.287Z,3.30
2019-04-22T01:53:16.422Z,3.10
2019-04-22T01:56:13.570Z,3.20
2019-04-22T01:59:08.517Z,2.57
2019-04-22T02:02:16.182Z,2.83
2019-04-22T02:08:31.286Z,2.83
2019-04-22T02:11:32.560Z,2.57
2019-04-22T02:17:33.156Z,3.37
2019-04-22T02:20:32.638Z,3.07
2019-04-22T02:23:50.983Z,3.17
2019-04-22T02:29:44.147Z,3.60
2019-04-22T02:33:08.616Z,4.00
2019-04-22T02:36:19.142Z,3.80
2019-04-22T02:41:51.011Z,4.30
2019-04-22T02:44:53.607Z,4.80
2019-04-22T02:47:59.301Z,4.80
2019-04-22T02:57:19.443Z,4.30
2019-04-22T03:00:18.101Z,4.37
2019-04-22T03:03:25.484Z,4.20
2019-04-22T03:09:19.048Z,4.00
2019-04-22T03:12:29.093Z,4.50
2019-04-22T03:15:27.202Z,4.43
2019-04-22T03:18:29.144Z,4.23
2019-04-22T03:21:23.893Z,4.00
2019-04-22T03:27:31.862Z,4.23
2019-04-22T03:33:44.203Z,3.83
2019-04-22T03:46:02.018Z,3.90
2019-04-22T03:49:07.215Z,3.83
2019-04-22T03:57:53.913Z,3.73
2019-04-22T04:04:09.676Z,4.10
2019-04-22T04:10:16.993Z,4.30
2019-04-22T04:16:10.762Z,4.40
2019-04-22T04:19:23.398Z,4.00
2019-04-22T04:22:21.374Z,4.00
2019-04-22T04:25:29.544Z,4.13
2019-04-22T04:28:47.696Z,3.93
2019-04-22T04:34:43.841Z,3.70
2019-04-22T04:37:40.725Z,3.33
2019-04-22T04:40:34.485Z,3.63
2019-04-22T04:43:35.591Z,3.60
2019-04-22T04:49:45.649Z,4.13
2019-04-22T04:55:42.672Z,3.67
2019-04-22T04:58:56.337Z,3.70
2019-04-22T05:01:58.392Z,3.37
2019-04-22T05:10:58.641Z,3.67
2019-04-22T05:14:06.359Z,3.83
2019-04-22T05:20:09.112Z,4.57
2019-04-22T05:22:59.479Z,4.03
2019-04-22T05:26:04.342Z,4.13
2019-04-22T05:29:06.610Z,4.43
2019-04-22T05:35:06.769Z,4.20
2019-04-22T05:41:26.579Z,3.97
2019-04-22T05:44:22.235Z,4.30
2019-04-22T05:47:25.396Z,3.97
2019-04-22T05:50:47.373Z,4.57
2019-04-22T05:53:32.472Z,4.07
2019-04-22T05:59:39.544Z,3.93
2019-04-22T06:05:41.758Z,4.00
2019-04-22T06:08:45.592Z,4.03
2019-04-22T06:11:42.819Z,4.37
2019-04-22T06:14:49.234Z,3.90
2019-04-22T06:17:55.115Z,3.97
2019-04-22T06:24:16.802Z,4.03
2019-04-22T06:30:04.968Z,3.80
2019-04-22T06:33:11.184Z,3.77
2019-04-22T06:36:08.225Z,4.30
2019-04-22T06:39:14.615Z,3.70
2019-04-22T06:42:13.458Z,4.03
2019-04-22T06:48:21.564Z,4.30
2019-04-22T06:51:24.452Z,3.40
2019-04-22T06:54:23.447Z,4.10
2019-04-22T06:57:25.547Z,3.77
2019-04-22T07:00:24.650Z,4.20
2019-04-22T07:06:35.379Z,4.07
2019-04-22T07:09:35.043Z,4.07
2019-04-22T07:12:38.012Z,3.97
2019-04-22T07:15:46.429Z,4.37
2019-04-22T07:18:45.227Z,4.30
2019-04-22T07:21:46.946Z,4.20
2019-04-22T07:24:45.852Z,4.07
2019-04-22T07:27:46.082Z,4.20
2019-04-22T07:30:56.165Z,4.27
2019-04-22T07:33:51.778Z,3.83
2019-04-22T07:36:59.032Z,4.63
2019-04-22T07:39:58.327Z,4.40
2019-04-22T07:43:09.024Z,4.73
2019-04-22T07:46:11.327Z,4.60
2019-04-22T07:49:10.545Z,4.03
2019-04-22T07:51:55.915Z,4.65
2019-04-22T07:55:08.760Z,4.45
2019-04-22T07:58:11.853Z,4.30
2019-04-22T08:07:27.981Z,4.25
2019-04-22T08:10:29.843Z,4.30
2019-04-22T08:13:30.548Z,4.40
2019-04-22T08:16:28.536Z,4.40
2019-04-22T08:19:35.707Z,4.30
2019-04-22T08:22:39.953Z,4.00
2019-04-22T08:26:05.543Z,4.45
2019-04-22T08:29:22.145Z,4.03
2019-04-22T08:32:21.685Z,4.35
2019-04-22T08:41:33.414Z,4.35
2019-04-22T08:44:51.937Z,3.77
2019-04-22T08:47:36.104Z,3.98
2019-04-22T08:50:41.318Z,4.00
2019-04-22T08:53:51.909Z,4.50
2019-04-22T08:59:48.637Z,4.95
2019-04-22T09:02:55.445Z,4.55
2019-04-22T09:06:04.902Z,4.28
2019-04-22T09:09:02.131Z,3.72
2019-04-22T09:12:01.294Z,4.12
2019-04-22T09:15:08.645Z,4.30
2019-04-22T09:18:14.235Z,4.05
2019-04-22T09:21:22.775Z,3.90
2019-04-22T09:33:20.963Z,3.90
2019-04-22T09:36:29.045Z,4.10
2019-04-22T09:39:30.287Z,3.95
2019-04-22T09:42:37.367Z,3.75
2019-04-22T09:45:29.413Z,4.10
2019-04-22T09:48:37.486Z,3.55
2019-04-22T09:51:37.509Z,3.83
2019-04-22T09:54:57.925Z,3.98
2019-04-22T09:57:46.055Z,3.98
2019-04-22T10:00:52.784Z,3.75
2019-04-22T10:03:56.563Z,4.10
2019-04-22T10:06:44.363Z,3.92
2019-04-22T10:10:03.215Z,4.30
2019-04-22T10:13:10.438Z,3.55
2019-04-22T10:16:12.285Z,3.08
2019-04-22T10:22:12.128Z,3.40
2019-04-22T10:25:32.895Z,3.62
2019-04-22T10:28:27.250Z,3.40
2019-04-22T10:31:28.009Z,3.40
2019-04-22T10:33:58.807Z,3.35
2019-04-22T10:40:05.736Z,2.70
2019-04-22T10:43:07.218Z,2.55
2019-04-22T10:46:10.389Z,2.92
2019-04-22T10:49:12.703Z,4.47
2019-04-22T10:52:14.198Z,2.80
2019-04-22T10:55:15.495Z,2.98
2019-04-22T10:58:17.060Z,2.90
2019-04-22T11:01:18.236Z,2.37
2019-04-22T11:04:19.514Z,2.80
2019-04-22T11:07:25.235Z,2.58
2019-04-22T11:10:36.801Z,2.17
2019-04-22T11:13:28.255Z,2.40
2019-04-22T11:16:29.845Z,2.30
2019-04-22T11:19:31.860Z,2.20
2019-04-22T11:22:36.565Z,2.20
2019-04-22T11:25:36.277Z,2.20
2019-04-22T11:28:38.105Z,2.30
2019-04-22T11:31:39.000Z,2.23
2019-04-22T11:34:39.766Z,2.50
2019-04-22T11:37:40.899Z,2.37
2019-04-22T11:40:46.304Z,2.43
2019-04-22T11:43:45.168Z,2.30
2019-04-22T11:46:47.493Z,2.93
2019-04-22T11:49:49.978Z,2.47
2019-04-22T11:52:51.123Z,2.90
2019-04-22T11:55:53.177Z,2.53
2019-04-22T11:58:55.141Z,2.47
2019-04-22T12:01:57.016Z,3.10
2019-04-22T12:04:58.554Z,2.60
2019-04-22T12:08:00.013Z,2.80
2019-04-22T12:10:54.203Z,2.80
2019-04-22T12:14:00.182Z,2.90
2019-04-22T12:17:03.564Z,3.20
2019-04-22T12:20:08.595Z,3.13
2019-04-22T12:23:09.399Z,2.70
2019-04-22T12:26:14.098Z,3.13
2019-04-22T12:29:13.374Z,2.87
2019-04-22T12:32:15.831Z,2.83
2019-04-22T12:35:17.845Z,2.90
2019-04-22T12:41:06.283Z,3.30
2019-04-22T12:44:05.244Z,3.10
2019-04-22T12:47:07.465Z,3.10
2019-04-22T12:50:17.542Z,3.00
2019-04-22T12:53:16.736Z,3.13
2019-04-22T12:56:15.407Z,3.30
2019-04-22T12:59:17.310Z,2.97
2019-04-22T13:02:19.033Z,3.20
2019-04-22T13:05:20.534Z,3.03
2019-04-22T13:08:23.368Z,2.40
2019-04-22T13:11:30.218Z,2.67
2019-04-22T13:14:27.399Z,2.60
2019-04-22T13:17:29.138Z,2.73
2019-04-22T13:20:30.661Z,2.80
2019-04-22T13:23:32.148Z,2.53
2019-04-22T13:26:33.835Z,2.20
2019-04-22T13:29:35.409Z,2.10
2019-04-22T13:32:36.886Z,2.67
2019-04-22T13:35:39.450Z,2.60
2019-04-22T13:38:42.854Z,2.50
2019-04-22T13:41:48.732Z,2.50
2019-04-22T13:44:46.196Z,2.23
2019-04-22T13:47:55.737Z,2.50
2019-04-22T13:51:15.092Z,2.70
2019-04-22T13:54:42.459Z,2.53
2019-04-22T13:57:09.078Z,2.30
2019-04-22T13:59:57.997Z,2.40
2019-04-22T14:03:16.276Z,2.30
2019-04-22T14:06:18.508Z,2.30
2019-04-22T14:09:20.437Z,2.40
2019-04-22T14:12:21.996Z,2.50
2019-04-22T14:15:24.332Z,3.03
2019-04-22T14:18:25.588Z,2.50
2019-04-22T14:21:27.129Z,2.70
2019-04-22T14:24:29.889Z,2.50
2019-04-22T14:27:40.736Z,2.70
2019-04-22T14:30:34.680Z,2.43
2019-04-22T14:33:36.405Z,2.30
2019-04-22T14:36:37.225Z,2.53
2019-04-22T14:39:39.810Z,2.50
2019-04-22T14:43:00.560Z,2.83
2019-04-22T14:46:21.500Z,2.57
2019-04-22T14:49:10.371Z,2.40
2019-04-22T14:52:13.603Z,2.67
2019-04-22T14:55:03.008Z,3.10
2019-04-22T14:57:55.034Z,3.10
2019-04-22T15:00:56.927Z,2.87
2019-04-22T15:03:58.839Z,3.00
2019-04-22T15:07:01.150Z,2.60
2019-04-22T15:10:04.002Z,2.63
2019-04-22T15:13:05.347Z,2.50
2019-04-22T15:16:26.027Z,2.90
2019-04-22T15:19:29.630Z,2.80
2019-04-22T15:22:30.848Z,3.00
2019-04-22T15:25:32.545Z,2.80
2019-04-22T15:28:35.435Z,2.70
2019-04-22T15:31:37.438Z,3.40
2019-04-22T15:34:39.487Z,2.80
2019-04-22T15:37:41.449Z,3.10
2019-04-22T15:40:42.823Z,3.07
2019-04-22T15:43:45.770Z,2.87
2019-04-22T15:46:48.854Z,3.00
2019-04-22T15:49:49.943Z,3.17
2019-04-22T15:52:53.798Z,3.20
2019-04-22T15:55:54.689Z,3.03
2019-04-22T15:58:57.618Z,2.77
2019-04-22T16:02:01.877Z,2.60
2019-04-22T16:05:02.713Z,3.27
2019-04-22T16:08:04.345Z,3.07
2019-04-22T16:11:06.178Z,3.00
2019-04-22T16:14:08.688Z,3.10
2019-04-22T16:17:10.568Z,3.53
2019-04-22T16:20:13.270Z,3.80
2019-04-22T16:23:24.625Z,3.30
2019-04-22T16:26:52.061Z,3.83
2019-04-22T16:29:53.351Z,2.95
2019-04-22T16:32:55.349Z,3.25
2019-04-22T16:35:58.578Z,3.05
2019-04-22T16:39:00.545Z,3.20
2019-04-22T16:42:02.651Z,3.67
2019-04-22T16:45:03.888Z,2.90
2019-04-22T16:48:05.136Z,2.77
2019-04-22T16:51:06.711Z,3.60
2019-04-22T16:54:08.605Z,3.55
2019-04-22T16:57:10.170Z,3.20
2019-04-22T17:00:14.710Z,3.75
2019-04-22T17:09:53.450Z,3.77
2019-04-22T17:13:02.403Z,3.55
2019-04-22T17:16:00.429Z,3.08
2019-04-22T17:18:50.083Z,3.12
2019-04-22T17:21:59.569Z,3.55
2019-04-22T17:25:02.726Z,3.15
2019-04-22T17:28:05.691Z,3.05
2019-04-22T17:31:08.703Z,3.25
2019-04-22T17:34:11.531Z,3.17
2019-04-22T17:37:19.230Z,3.10
2019-04-22T17:40:33.104Z,3.10
2019-04-22T17:43:48.015Z,3.30
2019-04-22T17:50:00.200Z,3.17
2019-04-22T17:53:08.565Z,3.00
2019-04-22T17:56:08.593Z,2.85
2019-04-22T17:59:10.431Z,3.27
2019-04-22T18:02:07.228Z,2.58
2019-04-22T18:04:59.340Z,2.83
2019-04-22T18:08:20.454Z,3.02
2019-04-22T18:11:29.437Z,2.85
2019-04-22T18:14:35.021Z,2.87
2019-04-22T18:17:30.536Z,2.62
2019-04-22T18:20:27.198Z,3.40
2019-04-22T18:23:16.834Z,3.30
2019-04-22T18:26:30.431Z,2.90
2019-04-22T18:29:41.618Z,2.83
2019-04-22T18:32:41.226Z,3.60
2019-04-22T18:35:39.982Z,3.25
2019-04-22T18:38:58.325Z,2.92
2019-04-22T18:41:50.092Z,3.00
2019-04-22T18:45:09.831Z,3.60
2019-04-22T18:47:50.377Z,2.60
2019-04-22T18:51:24.933Z,3.33
2019-04-22T18:54:32.218Z,2.50
2019-04-22T18:57:28.337Z,3.10
2019-04-22T19:00:34.227Z,2.70
2019-04-22T19:03:46.750Z,3.33
2019-04-22T19:07:17.124Z,3.02
2019-04-22T19:10:09.611Z,3.20
2019-04-22T19:13:37.402Z,2.72
2019-04-22T19:16:27.444Z,2.90
2019-04-22T19:22:19.540Z,2.60
2019-04-22T19:25:11.973Z,2.75
2019-04-22T19:28:32.402Z,3.02
2019-04-22T19:31:24.762Z,2.87
2019-04-22T19:34:25.273Z,2.87
2019-04-22T19:37:28.422Z,2.90
2019-04-22T19:40:45.619Z,2.80
2019-04-22T19:43:39.281Z,2.80
2019-04-22T19:46:43.675Z,3.05
2019-04-22T19:49:52.487Z,2.62
2019-04-22T19:52:35.352Z,3.17
2019-04-22T19:55:45.883Z,2.80
2019-04-22T19:58:42.713Z,2.83
2019-04-22T20:01:49.458Z,2.65
2019-04-22T20:05:24.622Z,2.77
2019-04-22T20:08:23.375Z,2.42
2019-04-22T20:11:24.581Z,2.70
2019-04-22T20:14:23.497Z,2.15
2019-04-22T20:17:31.807Z,2.70
2019-04-22T20:20:36.969Z,2.50
2019-04-22T20:23:25.332Z,2.33
2019-04-22T20:26:43.758Z,2.30
2019-04-22T20:29:42.104Z,2.58
2019-04-22T20:32:41.282Z,2.60
2019-04-22T20:35:43.605Z,2.50
2019-04-22T20:38:35.695Z,2.27
2019-04-22T20:45:01.870Z,2.30
2019-04-22T20:47:51.218Z,2.45
2019-04-22T20:51:04.208Z,2.02
2019-04-22T20:54:10.340Z,2.70
2019-04-22T20:57:07.584Z,2.70
2019-04-22T21:00:09.043Z,2.45
2019-04-22T21:03:06.607Z,2.42
2019-04-22T21:06:14.846Z,2.60
2019-04-22T21:09:23.972Z,2.60
2019-04-22T21:12:18.984Z,2.50
2019-04-22T21:15:32.559Z,2.58
2019-04-22T21:18:27.280Z,2.75
2019-04-22T21:21:38.666Z,2.60
2019-04-22T21:24:34.946Z,2.83
2019-04-22T21:27:45.622Z,2.20
2019-04-22T21:30:43.283Z,2.65
2019-04-22T21:33:48.835Z,2.92
2019-04-22T21:36:56.289Z,2.42
2019-04-22T21:39:49.704Z,3.20
2019-04-22T21:42:59.542Z,2.77
2019-04-22T21:46:06.743Z,2.50
2019-04-22T21:49:06.395Z,3.10
2019-04-22T21:52:05.447Z,2.55
2019-04-22T21:55:14.398Z,2.80
2019-04-22T21:58:19.510Z,2.72
2019-04-22T22:04:44.321Z,2.65
2019-04-22T22:07:32.917Z,3.10
2019-04-22T22:10:51.199Z,2.77
2019-04-22T22:13:59.454Z,2.80
2019-04-22T22:16:53.050Z,2.90
2019-04-22T22:19:57.811Z,2.85
2019-04-22T22:23:16.112Z,2.85
2019-04-22T22:26:04.186Z,2.67
2019-04-22T22:29:20.491Z,2.80
2019-04-22T22:32:16.511Z,2.90
2019-04-22T22:35:20.655Z,2.77
2019-04-22T22:38:26.291Z,2.98
2019-04-22T22:41:05.805Z,3.10
2019-04-22T22:44:16.309Z,3.00
2019-04-22T22:47:30.042Z,3.12
2019-04-22T22:50:30.285Z,2.85
2019-04-22T22:53:40.576Z,2.80
2019-04-22T22:56:47.433Z,2.87
2019-04-22T22:59:46.170Z,3.22
2019-04-22T23:03:03.426Z,3.12
2019-04-22T23:05:50.548Z,2.77
2019-04-22T23:08:57.218Z,3.10
2019-04-22T23:12:06.169Z,2.80
2019-04-22T23:15:00.622Z,3.35
2019-04-22T23:17:41.432Z,3.65
2019-04-22T23:20:36.106Z,3.33
2019-04-22T23:23:57.712Z,3.05
2019-04-22T23:32:57.828Z,3.55
2019-04-22T23:39:33.863Z,3.77
2019-04-22T23:42:33.768Z,3.80
2019-04-22T23:49:02.330Z,3.60
2019-04-22T23:52:09.037Z,3.60
2019-04-22T23:55:10.164Z,3.77
2019-04-22T23:58:32.373Z,3.30
